RESULTAT

12 km - Preliminära Resultat

12 km 2020  - Kvinna - 144 st
Plac. Nr Löpare Start Mål Sluttid Tempo
101 203 Alexandra Flacké Jacobson SWE 10:00:00 11:36:15 01:36:15 8:01 min/km
102 483 Sofia Stiernstrand, Sjuntorp SWE 10:00:00 11:37:02 01:37:02 8:05 min/km
103 233 Carina Jansson Klinte | Team Nordic Trail, Ljungskile SWE 10:00:00 11:37:17 01:37:17 8:06 min/km
104 392 Maja Petersson | svett n Colada, ljungby SWE 10:00:00 11:37:39 01:37:39 8:08 min/km
105 230 Cara Hansson | Klappjakten, Västra Frölunda SWE 10:00:00 11:37:55 01:37:55 8:10 min/km
106 250 Cissi Meltzer | Golden Wellness, Varberg SWE 10:00:00 11:38:23 01:38:23 8:12 min/km
107 219 Annie Ljungblad, Tvååker SWE 10:00:00 11:38:48 01:38:48 8:14 min/km
108 465 Rebecka Eriksson, Varberg SWE 10:00:00 11:40:28 01:40:28 8:22 min/km
109 217 Anna Hultgren | ICA, Jönköping SWE 10:00:00 11:40:56 01:40:56 8:25 min/km
110 241 Charlotte Brügge Lundgren, Vallda SWE 10:00:00 11:41:39 01:41:39 8:28 min/km
111 464 Rebecka Vahlström, Varberg SWE 10:00:00 11:41:52 01:41:52 8:29 min/km
112 495 Therese Malmquist, Vallda SWE 10:00:00 11:41:55 01:41:55 8:30 min/km
113 226 Camilla Ramstedt, Åskloster SWE 10:00:00 11:41:55 01:41:55 8:30 min/km
114 277 Linda Pihl, Klippan SWE 10:00:00 11:42:06 01:42:06 8:31 min/km
115 229 Camilla Johansson, Vallda SWE 10:00:00 11:42:10 01:42:10 8:31 min/km
116 375 Linda Elmén | Varbergshus, Varberg SWE 10:00:00 11:42:26 01:42:26 8:32 min/km
117 358 Katrine Perkman, Kungsbacka SWE 10:00:00 11:43:18 01:43:18 8:36 min/km
118 377 Linn Kanter, Göteborg SWE 10:00:00 11:43:20 01:43:20 8:37 min/km
119 458 Pia Johansson, Mölndal SWE 10:00:00 11:43:29 01:43:29 8:37 min/km
120 404 Marie Fredriksson | Gunnebo Girls, Öjersjö SWE 10:00:00 11:43:29 01:43:29 8:37 min/km
121 493 Susanne Svanberg | Team Bunkern, Torslanda SWE 10:00:00 11:43:56 01:43:56 8:40 min/km
122 402 Marie Jinnemo | -, Förslöv SWE 10:00:00 11:44:04 01:44:04 8:40 min/km
123 212 Anita Ek | Falkenberg, Heberg SWE 10:00:00 11:44:11 01:44:11 8:41 min/km
124 167 Siw Hedlin | Axa SC, Värnamo SWE 10:30:00 12:14:13 01:44:13 8:41 min/km
125 357 Katarina Karlsson Frisch, Falkenberg SWE 10:00:00 11:44:18 01:44:18 8:42 min/km
126 206 Amanda Hasselgren, Glommen SWE 10:00:00 11:44:28 01:44:28 8:42 min/km
127 405 Marie Ljungblad, Tvååker SWE 10:00:00 11:45:06 01:45:06 8:46 min/km
128 92 Josefin Åkesson | springande tjejer, Jonsered SWE 10:30:00 12:17:11 01:47:11 8:56 min/km
129 238 Catarina Helamb, Mölndal SWE 10:00:00 11:47:45 01:47:45 8:59 min/km
130 301 Inger Magnusson | Team Bunkern, Hisings Kärra SWE 10:00:00 11:48:40 01:48:40 9:03 min/km
131 293 Helena Elfstigen | Team Benkern, Nol SWE 10:00:00 11:48:41 01:48:41 9:03 min/km
132 228 Camilla Malm | Team Bunkern, Hisingskärra SWE 10:00:00 11:48:41 01:48:41 9:03 min/km
133 406 Marie-Louise Eskilstorp, Halmstad SWE 10:00:00 11:48:48 01:48:48 9:04 min/km
134 494 Suzanne Svensson | Viljan, Falkenberg SWE 10:00:00 11:48:49 01:48:49 9:04 min/km
135 286 Hanna Wallin | Hår&Häpna, Vinberg SWE 10:00:00 11:49:25 01:49:25 9:07 min/km
136 485 Sofia Gustafsson | THEOCRGYM, Mölndal SWE 10:00:00 11:54:04 01:54:04 9:30 min/km
137 251 Cornelia Hjertsson | Hår&Häpna, Vinberg SWE 10:00:00 11:56:06 01:56:06 9:40 min/km
138 168 Sofia Granath | Lonesome runners, Onsala SWE 10:30:00 12:26:10 01:56:10 9:41 min/km
139 142 Mirja Färnstrand, Mölndal SWE 10:30:00 12:26:29 01:56:29 9:42 min/km
140 361 Kristin Johnsson | Fasters Team, Veddige SWE 10:00:00 11:56:50 01:56:50 9:44 min/km
141 448 Pernilla Johnsson | Fasters Team, Väröbacka SWE 10:00:00 11:56:53 01:56:53 9:44 min/km
142 227 Camilla Kryh, Varberg SWE 10:00:00 12:02:12 02:02:12 10:11 min/km
143 306 Jennie Matlak | Dark Trail Runners, Alingsås SWE 10:00:00 12:02:47 02:02:47 10:14 min/km
144 314 Jessica Holländare | Runacademy if, Limmared SWE 10:00:00 12:10:28 02:10:28 10:52 min/km

Saknar du ett resultat eller ser någon felaktighet - skicka gärna ett mail till time@racebuddi.com